KLBE/LBE METAR and TAF weather

Enter ICAO airport designator
Station Type Date Time Source
KLBE METAR 2021/01/16 02:47 UTC NOAA

KLBE 160247Z 23004KT 5SM BR CLR 00/00 A2971


Station Type Date Time Source
KLBE Decoded METAR 2021/01/16 02:47 UTC NOAA

Latrobe / Westmorland, PA, United States (KLBE) 40-17N 079-24W
Jan 15, 2021 - 09:47 PM EST / 2021.01.16 0247 UTC
Wind: from the SW (230 degrees) at 5 MPH (4 KT):0
Visibility: 5 mile(s):0
Sky conditions: clear
Weather: mist
Temperature: 32 F (0 C)
Windchill: 26 F (-3 C):1
Dew Point: 32 F (0 C)
Relative Humidity: 100%
Pressure (altimeter): 29.71 in. Hg (1006 hPa)
ob: KLBE 160247Z 23004KT 5SM BR CLR 00/00 A2971
cycle: 3

Station Type Date Time Source
KLBE TAF 2021/01/16 03:33 UTC NOAA

TAF
AMD KLBE 160230Z 1603/1624 19004KT P6SM SCT070
FM161200 00000KT P6SM OVC025
FM161500 23005KT 5SM -SHSN OVC015

Example: see airport list